createdAt,value
2022-09-23T00:01:17.925Z,99295.84
2022-09-23T00:03:47.191Z,99291.84
2022-09-23T00:06:17.647Z,99291.53
2022-09-23T00:08:46.490Z,99293.31
2022-09-23T00:11:18.513Z,99295.69
2022-09-23T00:13:48.806Z,99291.47
2022-09-23T00:16:20.601Z,99294.06
2022-09-23T00:18:50.223Z,99292.88
2022-09-23T00:21:20.862Z,99290.09
2022-09-23T00:23:49.924Z,99296.16
2022-09-23T00:26:22.064Z,99291.31
2022-09-23T00:28:51.600Z,99301.75
2022-09-23T00:31:21.931Z,99293.88
2022-09-23T00:33:54.271Z,99289.84
2022-09-23T00:36:22.856Z,99294.13
2022-09-23T00:38:51.432Z,99295.66
2022-09-23T00:41:21.761Z,99293.25
2022-09-23T00:43:52.817Z,99286.22
2022-09-23T00:46:23.640Z,99283.81
2022-09-23T00:48:56.341Z,99285.44
2022-09-23T00:51:28.789Z,99285.19
2022-09-23T00:53:57.374Z,99281.34
2022-09-23T00:56:27.386Z,99285.13
2022-09-23T00:58:55.990Z,99281.47
2022-09-23T01:01:25.855Z,99267.56
2022-09-23T01:03:55.401Z,99277.63
2022-09-23T01:06:24.114Z,99270.31
2022-09-23T01:08:53.026Z,99279.53
2022-09-23T01:11:38.404Z,99273.41
2022-09-23T01:14:18.973Z,99277.63
2022-09-23T01:16:54.741Z,99273.63
2022-09-23T01:19:40.878Z,99272.44
2022-09-23T01:22:13.290Z,99270.06
2022-09-23T01:24:50.074Z,99267.81
2022-09-23T01:27:28.614Z,99256.97
2022-09-23T01:30:09.144Z,99272.84
2022-09-23T01:32:49.245Z,99272.84
2022-09-23T01:35:25.764Z,99265.78
2022-09-23T01:38:00.392Z,99264.34
2022-09-23T01:40:32.456Z,99264.56
2022-09-23T01:43:06.058Z,99267.56
2022-09-23T01:45:37.326Z,99263.13
2022-09-23T01:48:13.825Z,99262.31
2022-09-23T01:50:57.499Z,99258.28
2022-09-23T01:53:32.994Z,99248.25
2022-09-23T01:56:04.118Z,99251.03
2022-09-23T01:58:38.100Z,99249.50
2022-09-23T02:01:08.531Z,99247.38
2022-09-23T02:03:42.728Z,99247.41
2022-09-23T02:06:13.544Z,99248.66
2022-09-23T02:08:45.608Z,99257.53
2022-09-23T02:11:16.050Z,99259.94
2022-09-23T02:13:48.662Z,99261.22
2022-09-23T02:16:23.528Z,99250.19
2022-09-23T02:18:55.962Z,99253.16
2022-09-23T02:21:27.404Z,99242.50
2022-09-23T02:24:00.456Z,99238.25
2022-09-23T02:26:32.346Z,99248.34
2022-09-23T02:29:08.812Z,99244.28
2022-09-23T02:31:40.582Z,99245.19
2022-09-23T02:34:23.117Z,99244.84
2022-09-23T02:36:59.459Z,99234.78
2022-09-23T02:39:32.490Z,99234.88
2022-09-23T02:42:07.500Z,99242.13
2022-09-23T02:44:36.038Z,99238.03
2022-09-23T02:47:04.692Z,99242.97
2022-09-23T02:49:36.490Z,99245.47
2022-09-23T02:52:07.691Z,99233.63
2022-09-23T02:54:36.343Z,99234.00
2022-09-23T02:57:06.784Z,99232.13
2022-09-23T02:59:36.284Z,99236.44
2022-09-23T03:02:26.514Z,99227.81
2022-09-23T03:05:05.608Z,99231.16
2022-09-23T03:07:40.120Z,99238.03
2022-09-23T03:10:14.412Z,99229.63
2022-09-23T03:12:48.674Z,99235.63
2022-09-23T03:15:23.883Z,99231.16
2022-09-23T03:17:57.618Z,99232.13
2022-09-23T03:20:32.207Z,99232.13
2022-09-23T03:23:03.657Z,99229.06
2022-09-23T03:25:35.259Z,99243.44
2022-09-23T03:28:04.986Z,99233.91
2022-09-23T03:30:35.516Z,99240.56
2022-09-23T03:33:06.002Z,99247.38
2022-09-23T03:35:58.947Z,99242.34
2022-09-23T03:38:32.805Z,99241.38
2022-09-23T03:41:02.858Z,99235.09
2022-09-23T03:43:35.283Z,99232.16
2022-09-23T03:46:08.852Z,99235.56
2022-09-23T03:48:37.582Z,99234.94
2022-09-23T03:51:21.379Z,99227.66
2022-09-23T03:53:50.060Z,99216.75
2022-09-23T03:56:18.623Z,99224.28
2022-09-23T03:58:47.180Z,99218.47
2022-09-23T04:01:16.074Z,99215.41
2022-09-23T04:03:44.695Z,99214.78
2022-09-23T04:06:14.726Z,99217.25
2022-09-23T04:08:43.329Z,99212.81
2022-09-23T04:11:12.233Z,99211.00
2022-09-23T04:13:40.799Z,99202.22
2022-09-23T04:16:09.437Z,99201.16
2022-09-23T04:18:38.045Z,99196.03
2022-09-23T04:21:06.968Z,99196.75
2022-09-23T04:23:36.900Z,99202.69
2022-09-23T04:26:06.202Z,99196.28
2022-09-23T04:28:35.356Z,99202.41
2022-09-23T04:31:05.455Z,99191.22
2022-09-23T04:33:34.301Z,99200.88
2022-09-23T04:36:03.100Z,99198.66
2022-09-23T04:38:31.789Z,99190.06
2022-09-23T04:41:01.754Z,99193.63
2022-09-23T04:43:30.351Z,99197.50
2022-09-23T04:46:00.525Z,99191.91
2022-09-23T04:48:29.465Z,99192.50
2022-09-23T04:51:03.228Z,99202.81
2022-09-23T04:53:31.829Z,99196.16
2022-09-23T04:56:06.658Z,99193.94
2022-09-23T04:58:35.858Z,99204.16
2022-09-23T05:01:10.310Z,99211.50
2022-09-23T05:03:39.846Z,99202.09
2022-09-23T05:06:08.822Z,99210.50
2022-09-23T05:08:37.539Z,99210.09
2022-09-23T05:11:08.910Z,99207.22
2022-09-23T05:13:37.496Z,99216.19
2022-09-23T05:16:09.093Z,99210.25
2022-09-23T05:18:42.667Z,99214.53
2022-09-23T05:21:12.036Z,99222.69
2022-09-23T05:23:41.545Z,99219.47
2022-09-23T05:26:13.582Z,99222.88
2022-09-23T05:28:42.225Z,99212.84
2022-09-23T05:31:19.398Z,99217.59
2022-09-23T05:33:51.748Z,99223.16
2022-09-23T05:36:21.166Z,99211.56
2022-09-23T05:38:51.144Z,99215.63
2022-09-23T05:41:22.859Z,99221.97
2022-09-23T05:43:52.404Z,99217.97
2022-09-23T05:46:23.526Z,99223.06
2022-09-23T05:48:52.749Z,99219.50
2022-09-23T05:51:23.991Z,99223.38
2022-09-23T05:53:55.685Z,99225.97
2022-09-23T05:56:27.133Z,99225.16
2022-09-23T05:58:57.431Z,99226.44
2022-09-23T06:01:27.844Z,99223.47
2022-09-23T06:03:57.666Z,99229.75
2022-09-23T06:06:28.894Z,99219.34
2022-09-23T06:08:58.505Z,99223.22
2022-09-23T06:11:30.604Z,99224.97
2022-09-23T06:14:01.019Z,99224.28
2022-09-23T06:16:30.869Z,99228.47
2022-09-23T06:19:05.071Z,99220.31
2022-09-23T06:21:34.748Z,99217.81
2022-09-23T06:24:03.898Z,99220.50
2022-09-23T06:26:34.937Z,99205.44
2022-09-23T06:29:04.480Z,99212.94
2022-09-23T06:31:33.277Z,99209.38
2022-09-23T06:34:10.978Z,99210.94
2022-09-23T06:36:44.577Z,99209.03
2022-09-23T06:39:14.838Z,99207.41
2022-09-23T06:41:45.270Z,99205.78
2022-09-23T06:44:14.213Z,99211.09
2022-09-23T06:46:43.256Z,99203.34
2022-09-23T06:49:13.370Z,99209.81
2022-09-23T06:51:42.279Z,99215.88
2022-09-23T06:54:11.118Z,99221.50
2022-09-23T06:56:40.223Z,99219.84
2022-09-23T06:59:13.010Z,99205.69
2022-09-23T07:01:41.836Z,99219.47
2022-09-23T07:04:10.926Z,99219.91
2022-09-23T07:06:39.730Z,99222.81
2022-09-23T07:09:09.605Z,99225.72
2022-09-23T07:11:39.670Z,99217.59
2022-09-23T07:14:08.281Z,99222.31
2022-09-23T07:16:38.260Z,99223.63
2022-09-23T07:19:07.122Z,99214.47
2022-09-23T07:21:36.782Z,99218.56
2022-09-23T07:24:05.706Z,99206.63
2022-09-23T07:26:34.708Z,99207.09
2022-09-23T07:29:04.697Z,99207.56
2022-09-23T07:31:39.228Z,99199.63
2022-09-23T07:34:11.584Z,99207.72
2022-09-23T07:36:41.876Z,99200.97
2022-09-23T07:39:12.597Z,99204.22
2022-09-23T07:41:44.475Z,99195.75
2022-09-23T07:44:13.521Z,99200.97
2022-09-23T07:46:42.155Z,99198.38
2022-09-23T07:49:13.559Z,99196.03
2022-09-23T07:51:45.876Z,99193.44
2022-09-23T07:54:16.295Z,99194.25
2022-09-23T07:56:45.261Z,99195.25
2022-09-23T07:59:18.167Z,99197.03
2022-09-23T08:01:48.749Z,99199.66
2022-09-23T08:04:20.242Z,99191.19
2022-09-23T08:06:51.005Z,99188.38
2022-09-23T08:09:21.673Z,99183.09
2022-09-23T08:11:50.853Z,99190.50
2022-09-23T08:14:20.048Z,99185.03
2022-09-23T08:16:49.043Z,99182.22
2022-09-23T08:19:19.285Z,99191.44
2022-09-23T08:21:48.144Z,99192.97
2022-09-23T08:24:18.450Z,99192.31
2022-09-23T08:26:47.818Z,99190.88
2022-09-23T08:29:17.893Z,99186.97
2022-09-23T08:31:46.514Z,99187.09
2022-09-23T08:34:15.180Z,99178.91
2022-09-23T08:36:45.351Z,99184.47
2022-09-23T08:39:15.345Z,99187.63
2022-09-23T08:41:47.628Z,99187.81
2022-09-23T08:44:19.286Z,99181.59
2022-09-23T08:46:53.109Z,99178.34
2022-09-23T08:49:27.113Z,99179.84
2022-09-23T08:51:57.301Z,99183.44
2022-09-23T08:54:27.891Z,99174.66
2022-09-23T08:56:58.526Z,99182.25
2022-09-23T08:59:29.843Z,99170.72
2022-09-23T09:02:00.527Z,99181.06
2022-09-23T09:04:34.170Z,99176.34
2022-09-23T09:07:35.115Z,99176.06
2022-09-23T09:10:07.231Z,99171.50
2022-09-23T09:12:41.833Z,99175.56
2022-09-23T09:15:13.969Z,99177.28
2022-09-23T09:17:50.126Z,99176.44
2022-09-23T09:20:26.264Z,99174.53
2022-09-23T09:22:59.741Z,99167.38
2022-09-23T09:25:41.200Z,99169.53
2022-09-23T09:28:17.557Z,99160.72
2022-09-23T09:30:48.858Z,99155.13
2022-09-23T09:33:19.029Z,99151.97
2022-09-23T09:36:03.848Z,99144.88
2022-09-23T09:38:33.844Z,99144.78
2022-09-23T09:41:12.248Z,99132.69
2022-09-23T09:43:44.129Z,99136.56
2022-09-23T09:46:27.853Z,99128.94
2022-09-23T09:48:59.715Z,99126.31
2022-09-23T09:51:29.490Z,99127.16
2022-09-23T09:54:17.498Z,99118.34
2022-09-23T09:59:22.929Z,99114.09
2022-09-23T10:02:15.521Z,99121.28
2022-09-23T10:04:44.358Z,99111.53
2022-09-23T10:07:14.680Z,99112.31
2022-09-23T10:09:51.050Z,99109.16
2022-09-23T10:12:21.385Z,99098.50
2022-09-23T10:14:51.709Z,99099.16
2022-09-23T10:17:22.518Z,99090.72
2022-09-23T10:19:52.422Z,99101.50
2022-09-23T10:22:24.620Z,99079.69
2022-09-23T10:24:55.730Z,99098.06
2022-09-23T10:27:31.297Z,99086.97
2022-09-23T10:30:01.700Z,99089.59
2022-09-23T10:32:33.451Z,99089.88
2022-09-23T10:35:14.688Z,99083.53
2022-09-23T10:37:45.725Z,99091.44
2022-09-23T10:40:36.910Z,99088.81
2022-09-23T10:43:45.271Z,99081.03
2022-09-23T10:46:41.233Z,99076.25
2022-09-23T10:49:35.573Z,99069.41
2022-09-23T10:52:18.233Z,99073.88
2022-09-23T10:54:54.157Z,99068.75
2022-09-23T10:57:41.652Z,99061.44
2022-09-23T11:00:16.773Z,99065.75
2022-09-23T11:03:02.786Z,99059.28
2022-09-23T11:05:36.714Z,99056.44
2022-09-23T11:08:20.630Z,99052.03
2022-09-23T11:11:03.888Z,99060.75
2022-09-23T11:14:05.521Z,99059.06
2022-09-23T11:16:44.318Z,99050.03
2022-09-23T11:19:26.686Z,99041.78
2022-09-23T11:22:05.891Z,99036.75
2022-09-23T11:24:52.085Z,99030.94
2022-09-23T11:27:33.011Z,99023.34
2022-09-23T11:30:11.542Z,99018.38
2022-09-23T11:33:14.177Z,99014.41
2022-09-23T11:35:47.587Z,99012.09
2022-09-23T11:38:21.213Z,99013.16
2022-09-23T11:40:54.663Z,99008.41
2022-09-23T11:43:25.876Z,99005.50
2022-09-23T11:45:59.848Z,99001.00
2022-09-23T11:48:32.721Z,99002.84
2022-09-23T11:51:04.265Z,98992.00
2022-09-23T11:53:40.505Z,98995.72
2022-09-23T11:56:22.652Z,98996.22
2022-09-23T11:59:01.106Z,98980.78
2022-09-23T12:01:37.702Z,98995.09
2022-09-23T12:04:18.830Z,98988.50
2022-09-23T12:06:51.757Z,98987.78
2022-09-23T12:09:40.909Z,98993.63
2022-09-23T12:12:15.930Z,98982.78
2022-09-23T12:14:52.252Z,98987.25
2022-09-23T12:17:34.916Z,98983.03
2022-09-23T12:20:16.032Z,98979.34
2022-09-23T12:22:54.144Z,98978.00
2022-09-23T12:25:43.277Z,98977.72
2022-09-23T12:28:14.848Z,98970.31
2022-09-23T12:30:44.061Z,98973.22
2022-09-23T12:33:24.467Z,98974.53
2022-09-23T12:35:54.406Z,98971.09
2022-09-23T12:38:26.071Z,98969.25
2022-09-23T12:40:55.792Z,98971.13
2022-09-23T12:43:31.810Z,98965.81
2022-09-23T12:46:19.822Z,98963.69
2022-09-23T12:49:00.543Z,98952.28
2022-09-23T12:51:30.156Z,98952.81
2022-09-23T12:54:22.727Z,98951.16
2022-09-23T12:57:02.657Z,98952.56
2022-09-23T12:59:53.886Z,98952.75
2022-09-23T13:02:28.691Z,98942.50
2022-09-23T13:05:31.928Z,98942.78
2022-09-23T13:08:04.199Z,98943.31
2022-09-23T13:10:34.282Z,98925.56
2022-09-23T13:13:03.526Z,98931.13
2022-09-23T13:15:34.381Z,98923.72
2022-09-23T13:18:25.580Z,98921.03
2022-09-23T13:20:56.762Z,98901.97
2022-09-23T13:23:26.962Z,98912.03
2022-09-23T13:25:57.644Z,98909.66
2022-09-23T13:28:36.757Z,98912.84
2022-09-23T13:31:07.386Z,98908.88
2022-09-23T13:33:42.377Z,98908.88
2022-09-23T13:36:14.439Z,98908.88
2022-09-23T13:38:43.437Z,98902.78
2022-09-23T13:41:15.014Z,98907.03
2022-09-23T13:43:45.285Z,98902.50
2022-09-23T13:46:16.937Z,98907.28
2022-09-23T13:48:47.349Z,98908.38
2022-09-23T13:51:22.753Z,98892.47
2022-09-23T13:53:53.503Z,98901.19
2022-09-23T13:56:23.142Z,98893.78
2022-09-23T13:58:52.221Z,98903.59
2022-09-23T14:01:32.217Z,98894.03
2022-09-23T14:04:02.117Z,98888.75
2022-09-23T14:06:32.411Z,98889.81
2022-09-23T14:09:02.500Z,98882.69
2022-09-23T14:11:33.295Z,98887.69
2022-09-23T14:14:07.509Z,98881.34
2022-09-23T14:16:37.789Z,98884.28
2022-09-23T14:19:06.599Z,98882.91
2022-09-23T14:21:38.234Z,98881.63
2022-09-23T14:24:17.384Z,98869.97
2022-09-23T14:26:48.635Z,98879.75
2022-09-23T14:29:18.886Z,98880.28
2022-09-23T14:31:56.690Z,98869.16
2022-09-23T14:34:46.467Z,98873.91
2022-09-23T14:37:40.591Z,98869.41
2022-09-23T14:40:13.752Z,98869.72
2022-09-23T14:42:44.735Z,98865.41
2022-09-23T14:45:16.841Z,98865.69
2022-09-23T14:47:48.424Z,98864.34
2022-09-23T14:50:39.520Z,98867.00
2022-09-23T14:53:34.438Z,98863.84
2022-09-23T14:56:12.607Z,98862.25
2022-09-23T14:58:48.136Z,98856.44
2022-09-23T15:01:35.309Z,98845.56
2022-09-23T15:04:30.416Z,98842.66
2022-09-23T15:07:02.017Z,98850.88
2022-09-23T15:09:33.997Z,98841.84
2022-09-23T15:12:05.561Z,98843.44
2022-09-23T15:14:41.058Z,98851.63
2022-09-23T15:17:18.948Z,98846.34
2022-09-23T15:19:52.557Z,98840.78
2022-09-23T15:22:21.217Z,98836.28
2022-09-23T15:24:52.317Z,98836.25
2022-09-23T15:27:38.599Z,98832.56
2022-09-23T15:30:15.880Z,98840.47
2022-09-23T15:32:44.965Z,98846.03
2022-09-23T15:35:15.639Z,98846.31
2022-09-23T15:37:44.478Z,98848.41
2022-09-23T15:40:22.604Z,98845.22
2022-09-23T15:42:55.347Z,98848.41
2022-09-23T15:45:29.715Z,98843.09
2022-09-23T15:48:00.913Z,98846.50
2022-09-23T15:50:30.082Z,98844.63
2022-09-23T15:52:59.507Z,98843.56
2022-09-23T15:55:29.528Z,98832.41
2022-09-23T15:57:58.311Z,98845.41
2022-09-23T16:00:27.095Z,98847.50
2022-09-23T16:02:55.776Z,98851.44
2022-09-23T16:05:32.331Z,98841.34
2022-09-23T16:08:04.938Z,98839.25
2022-09-23T16:10:38.320Z,98841.06
2022-09-23T16:13:08.959Z,98834.97
2022-09-23T16:15:39.025Z,98838.66
2022-09-23T16:18:08.328Z,98827.00
2022-09-23T16:20:39.001Z,98841.25
2022-09-23T16:23:09.090Z,98838.59
2022-09-23T16:25:39.047Z,98840.41
2022-09-23T16:28:07.724Z,98840.63
2022-09-23T16:30:36.416Z,98841.72
2022-09-23T16:33:05.139Z,98834.56
2022-09-23T16:35:34.620Z,98832.19
2022-09-23T16:38:03.275Z,98830.84
2022-09-23T16:40:32.641Z,98840.59
2022-09-23T16:43:05.282Z,98841.06
2022-09-23T16:45:34.681Z,98829.13
2022-09-23T16:48:03.567Z,98833.06
2022-09-23T16:50:33.438Z,98833.31
2022-09-23T16:53:02.115Z,98845.94
2022-09-23T16:55:31.266Z,98852.00
2022-09-23T16:57:59.984Z,98851.69
2022-09-23T17:00:47.604Z,98851.41
2022-09-23T17:03:33.802Z,98858.75
2022-09-23T17:06:07.906Z,98851.34
2022-09-23T17:08:36.891Z,98853.59
2022-09-23T17:11:05.680Z,98844.59
2022-09-23T17:13:35.112Z,98822.78
2022-09-23T17:16:05.482Z,98850.50
2022-09-23T17:18:34.453Z,98852.56
2022-09-23T17:21:04.750Z,98856.97
2022-09-23T17:23:35.134Z,98859.03
2022-09-23T17:26:05.410Z,98855.59
2022-09-23T17:28:34.542Z,98853.69
2022-09-23T17:31:06.042Z,98850.75
2022-09-23T17:33:37.541Z,98850.94
2022-09-23T17:36:11.000Z,98845.84
2022-09-23T17:38:40.185Z,98846.84
2022-09-23T17:41:09.183Z,98858.91
2022-09-23T17:43:38.824Z,98847.28
2022-09-23T17:46:10.771Z,98855.38
2022-09-23T17:48:41.752Z,98856.59
2022-09-23T17:51:12.669Z,98853.66
2022-09-23T17:53:42.782Z,98863.59
2022-09-23T17:56:14.441Z,98860.53
2022-09-23T17:58:43.643Z,98862.72
2022-09-23T18:01:15.060Z,98854.97
2022-09-23T18:03:44.261Z,98857.91
2022-09-23T18:06:15.402Z,98864.72
2022-09-23T18:08:45.804Z,98855.22
2022-09-23T18:11:16.488Z,98852.59
2022-09-23T18:13:48.858Z,98852.50
2022-09-23T18:16:19.226Z,98848.19
2022-09-23T18:18:51.620Z,98849.09
2022-09-23T18:21:20.712Z,98847.34
2022-09-23T18:23:50.348Z,98850.97
2022-09-23T18:26:21.644Z,98843.22
2022-09-23T18:28:52.953Z,98850.78
2022-09-23T18:31:23.992Z,98854.13
2022-09-23T18:33:53.378Z,98850.38
2022-09-23T18:36:22.746Z,98846.63
2022-09-23T18:38:51.951Z,98844.41
2022-09-23T18:41:20.782Z,98845.94
2022-09-23T18:43:49.506Z,98855.09
2022-09-23T18:46:19.209Z,98849.50
2022-09-23T18:49:07.363Z,98845.97
2022-09-23T18:51:38.366Z,98836.75
2022-09-23T18:54:08.330Z,98843.28
2022-09-23T18:56:41.605Z,98846.63
2022-09-23T18:59:14.342Z,98838.94
2022-09-23T19:01:43.490Z,98826.53
2022-09-23T19:04:14.662Z,98838.63
2022-09-23T19:06:43.278Z,98834.66
2022-09-23T19:09:12.207Z,98839.84
2022-09-23T19:11:40.825Z,98830.59
2022-09-23T19:14:11.493Z,98831.94
2022-09-23T19:16:41.499Z,98847.16
2022-09-23T19:19:10.914Z,98851.38
2022-09-23T19:21:40.883Z,98851.94
2022-09-23T19:24:09.669Z,98833.34
2022-09-23T19:26:40.389Z,98854.66
2022-09-23T19:29:12.405Z,98853.75
2022-09-23T19:31:41.787Z,98843.25
2022-09-23T19:34:13.772Z,98849.63
2022-09-23T19:36:46.310Z,98846.13
2022-09-23T19:39:17.539Z,98841.00
2022-09-23T19:41:46.935Z,98835.19
2022-09-23T19:44:16.557Z,98843.88
2022-09-23T19:46:45.803Z,98852.47
2022-09-23T19:49:15.104Z,98840.09
2022-09-23T19:51:46.459Z,98839.50
2022-09-23T19:54:20.669Z,98843.97
2022-09-23T19:56:50.045Z,98837.00
2022-09-23T19:59:19.590Z,98844.19
2022-09-23T20:01:48.623Z,98839.16
2022-09-23T20:04:17.902Z,98836.88
2022-09-23T20:06:49.495Z,98832.81
2022-09-23T20:09:18.192Z,98826.41
2022-09-23T20:11:46.822Z,98827.91
2022-09-23T20:14:15.459Z,98832.94
2022-09-23T20:16:44.272Z,98824.91
2022-09-23T20:19:12.953Z,98826.06
2022-09-23T20:21:41.537Z,98808.25
2022-09-23T20:24:13.124Z,98817.31
2022-09-23T20:26:59.144Z,98823.97
2022-09-23T20:29:27.801Z,98811.97
2022-09-23T20:31:58.563Z,98805.91
2022-09-23T20:34:29.632Z,98808.56
2022-09-23T20:36:59.228Z,98802.16
2022-09-23T20:39:29.229Z,98796.31
2022-09-23T20:41:58.329Z,98803.75
2022-09-23T20:44:27.000Z,98810.41
2022-09-23T20:46:55.838Z,98809.28
2022-09-23T20:49:24.565Z,98804.19
2022-09-23T20:51:53.511Z,98810.22
2022-09-23T20:54:23.042Z,98809.66
2022-09-23T20:56:53.376Z,98812.84
2022-09-23T20:59:21.957Z,98805.31
2022-09-23T21:01:55.416Z,98803.94
2022-09-23T21:04:24.136Z,98812.06
2022-09-23T21:06:52.936Z,98816.16
2022-09-23T21:09:22.397Z,98806.72
2022-09-23T21:11:50.974Z,98810.25
2022-09-23T21:14:22.515Z,98797.38
2022-09-23T21:16:51.509Z,98800.38
2022-09-23T21:19:20.273Z,98800.38
2022-09-23T21:21:48.906Z,98804.47
2022-09-23T21:24:45.616Z,98804.72
2022-09-23T21:27:06.450Z,98810.38
2022-09-23T21:29:36.359Z,98803.22
2022-09-23T21:32:05.552Z,98799.44
2022-09-23T21:34:34.144Z,98800.72
2022-09-23T21:37:03.918Z,98797.63
2022-09-23T21:39:32.918Z,98803.44
2022-09-23T21:42:01.567Z,98808.81
2022-09-23T21:44:30.349Z,98814.28
2022-09-23T21:47:00.387Z,98807.09
2022-09-23T21:49:29.059Z,98811.66
2022-09-23T21:51:58.924Z,98807.44
2022-09-23T21:54:27.766Z,98811.88
2022-09-23T21:56:56.389Z,98802.75
2022-09-23T21:59:25.042Z,98804.47
2022-09-23T22:01:54.486Z,98817.59
2022-09-23T22:04:24.676Z,98805.38
2022-09-23T22:06:53.886Z,98810.75
2022-09-23T22:09:22.586Z,98810.88
2022-09-23T22:12:07.835Z,98812.59
2022-09-23T22:14:36.854Z,98806.66
2022-09-23T22:17:06.678Z,98809.16
2022-09-23T22:19:42.767Z,98808.47
2022-09-23T22:22:17.601Z,98809.06
2022-09-23T22:24:47.691Z,98806.97
2022-09-23T22:27:18.400Z,98804.72
2022-09-23T22:30:04.500Z,98798.66
2022-09-23T22:32:42.097Z,98805.03
2022-09-23T22:35:13.405Z,98815.22
2022-09-23T22:37:41.979Z,98810.88
2022-09-23T22:40:14.257Z,98804.59
2022-09-23T22:42:43.366Z,98813.69
2022-09-23T22:45:12.682Z,98819.88
2022-09-23T22:47:44.068Z,98813.25
2022-09-23T22:50:14.989Z,98815.53
2022-09-23T22:52:43.839Z,98816.22
2022-09-23T22:55:12.817Z,98816.09
2022-09-23T22:57:41.437Z,98820.19
2022-09-23T23:00:12.082Z,98818.94
2022-09-23T23:02:42.222Z,98815.19
2022-09-23T23:05:11.081Z,98805.75
2022-09-23T23:07:41.108Z,98804.59
2022-09-23T23:10:10.532Z,98802.97
2022-09-23T23:12:40.301Z,98802.97
2022-09-23T23:15:12.283Z,98797.56
2022-09-23T23:17:43.552Z,98805.25
2022-09-23T23:20:12.374Z,98792.34
2022-09-23T23:22:42.275Z,98791.00
2022-09-23T23:25:11.053Z,98781.75
2022-09-23T23:27:39.625Z,98789.47
2022-09-23T23:30:09.631Z,98781.75
2022-09-23T23:32:38.383Z,98781.38
2022-09-23T23:35:08.462Z,98786.16
2022-09-23T23:37:37.013Z,98781.72
2022-09-23T23:40:08.298Z,98773.53
2022-09-23T23:42:36.901Z,98778.53
2022-09-23T23:45:06.456Z,98778.06
2022-09-23T23:47:35.856Z,98780.69
2022-09-23T23:50:05.441Z,98788.78
2022-09-23T23:52:34.015Z,98794.50
2022-09-23T23:55:02.869Z,98786.50
2022-09-23T23:57:32.839Z,98781.38
